sensor_id;sensor_type;location;lat;lon;timestamp;temperature;humidity
44487;DHT22;30191;50.908;6.962;2022-11-14T00:00:40;9.60;99.90
44487;DHT22;30191;50.908;6.962;2022-11-14T00:03:07;9.50;99.90
44487;DHT22;30191;50.908;6.962;2022-11-14T00:05:38;9.50;99.90
44487;DHT22;30191;50.908;6.962;2022-11-14T00:08:04;9.50;99.90
44487;DHT22;30191;50.908;6.962;2022-11-14T00:10:30;9.50;99.90
44487;DHT22;30191;50.908;6.962;2022-11-14T00:12:56;9.40;99.90
44487;DHT22;30191;50.908;6.962;2022-11-14T00:15:21;9.40;99.90
44487;DHT22;30191;50.908;6.962;2022-11-14T00:17:47;9.40;99.90
44487;DHT22;30191;50.908;6.962;2022-11-14T00:20:13;9.40;99.90
44487;DHT22;30191;50.908;6.962;2022-11-14T00:22:38;9.40;99.90
44487;DHT22;30191;50.908;6.962;2022-11-14T00:25:04;9.30;99.90
44487;DHT22;30191;50.908;6.962;2022-11-14T00:27:30;9.40;99.90
44487;DHT22;30191;50.908;6.962;2022-11-14T00:29:55;9.40;99.90
44487;DHT22;30191;50.908;6.962;2022-11-14T00:32:21;9.50;99.90
44487;DHT22;30191;50.908;6.962;2022-11-14T00:34:47;9.40;99.90
44487;DHT22;30191;50.908;6.962;2022-11-14T00:37:13;9.30;99.90
44487;DHT22;30191;50.908;6.962;2022-11-14T00:39:39;9.20;99.90
44487;DHT22;30191;50.908;6.962;2022-11-14T00:42:05;9.10;99.90
44487;DHT22;30191;50.908;6.962;2022-11-14T00:44:30;9.10;99.90
44487;DHT22;30191;50.908;6.962;2022-11-14T00:46:56;9.20;99.90
44487;DHT22;30191;50.908;6.962;2022-11-14T00:49:22;9.20;99.90
44487;DHT22;30191;50.908;6.962;2022-11-14T00:51:47;9.10;99.90
44487;DHT22;30191;50.908;6.962;2022-11-14T00:54:13;9.10;99.90
44487;DHT22;30191;50.908;6.962;2022-11-14T00:56:38;9.00;99.90
44487;DHT22;30191;50.908;6.962;2022-11-14T00:59:04;9.00;99.90
44487;DHT22;30191;50.908;6.962;2022-11-14T01:01:30;8.90;99.90
44487;DHT22;30191;50.908;6.962;2022-11-14T01:03:55;9.00;99.90
44487;DHT22;30191;50.908;6.962;2022-11-14T01:06:21;9.00;99.90
44487;DHT22;30191;50.908;6.962;2022-11-14T01:08:49;8.90;99.90
44487;DHT22;30191;50.908;6.962;2022-11-14T01:11:18;8.90;99.90
44487;DHT22;30191;50.908;6.962;2022-11-14T01:13:44;9.00;99.90
44487;DHT22;30191;50.908;6.962;2022-11-14T01:16:11;9.00;99.90
44487;DHT22;30191;50.908;6.962;2022-11-14T01:18:38;9.00;99.90
44487;DHT22;30191;50.908;6.962;2022-11-14T01:21:06;9.00;99.90
44487;DHT22;30191;50.908;6.962;2022-11-14T01:23:32;9.10;99.90
44487;DHT22;30191;50.908;6.962;2022-11-14T01:26:03;9.10;99.90
44487;DHT22;30191;50.908;6.962;2022-11-14T01:28:29;9.20;99.90
44487;DHT22;30191;50.908;6.962;2022-11-14T01:30:55;9.20;99.90
44487;DHT22;30191;50.908;6.962;2022-11-14T01:33:20;9.10;99.90
44487;DHT22;30191;50.908;6.962;2022-11-14T01:35:46;9.00;99.90
44487;DHT22;30191;50.908;6.962;2022-11-14T01:38:13;8.90;99.90
44487;DHT22;30191;50.908;6.962;2022-11-14T01:40:43;8.70;99.90
44487;DHT22;30191;50.908;6.962;2022-11-14T01:46:02;8.60;99.90
44487;DHT22;30191;50.908;6.962;2022-11-14T01:48:40;8.60;99.90
44487;DHT22;30191;50.908;6.962;2022-11-14T01:51:41;8.50;99.90
44487;DHT22;30191;50.908;6.962;2022-11-14T01:54:17;8.50;99.90
44487;DHT22;30191;50.908;6.962;2022-11-14T01:56:47;8.50;99.90
44487;DHT22;30191;50.908;6.962;2022-11-14T01:59:18;8.50;99.90
44487;DHT22;30191;50.908;6.962;2022-11-14T02:01:47;8.50;99.90
44487;DHT22;30191;50.908;6.962;2022-11-14T02:04:19;8.40;99.90
44487;DHT22;30191;50.908;6.962;2022-11-14T02:06:45;8.50;99.90
44487;DHT22;30191;50.908;6.962;2022-11-14T02:09:12;8.60;99.90
44487;DHT22;30191;50.908;6.962;2022-11-14T02:11:41;8.50;99.90
44487;DHT22;30191;50.908;6.962;2022-11-14T02:14:07;8.40;99.90
44487;DHT22;30191;50.908;6.962;2022-11-14T02:16:33;8.40;99.90
44487;DHT22;30191;50.908;6.962;2022-11-14T02:18:59;8.50;99.90
44487;DHT22;30191;50.908;6.962;2022-11-14T02:21:25;8.60;99.90
44487;DHT22;30191;50.908;6.962;2022-11-14T02:23:51;8.50;99.90
44487;DHT22;30191;50.908;6.962;2022-11-14T02:26:21;8.50;99.90
44487;DHT22;30191;50.908;6.962;2022-11-14T02:28:47;8.50;99.90
44487;DHT22;30191;50.908;6.962;2022-11-14T02:31:13;8.50;99.90
44487;DHT22;30191;50.908;6.962;2022-11-14T02:33:40;8.50;99.90
44487;DHT22;30191;50.908;6.962;2022-11-14T02:36:06;8.50;99.90
44487;DHT22;30191;50.908;6.962;2022-11-14T02:38:32;8.40;99.90
44487;DHT22;30191;50.908;6.962;2022-11-14T02:41:01;8.40;99.90
44487;DHT22;30191;50.908;6.962;2022-11-14T02:43:27;8.40;99.90
44487;DHT22;30191;50.908;6.962;2022-11-14T02:45:53;8.40;99.90
44487;DHT22;30191;50.908;6.962;2022-11-14T02:48:18;8.40;99.90
44487;DHT22;30191;50.908;6.962;2022-11-14T02:50:46;8.40;99.90
44487;DHT22;30191;50.908;6.962;2022-11-14T02:53:12;8.40;99.90
44487;DHT22;30191;50.908;6.962;2022-11-14T02:55:38;8.40;99.90
44487;DHT22;30191;50.908;6.962;2022-11-14T02:58:03;8.30;99.90
44487;DHT22;30191;50.908;6.962;2022-11-14T03:00:29;8.20;99.90
44487;DHT22;30191;50.908;6.962;2022-11-14T03:02:54;8.10;99.90
44487;DHT22;30191;50.908;6.962;2022-11-14T03:05:20;8.10;99.90
44487;DHT22;30191;50.908;6.962;2022-11-14T03:07:46;8.20;99.90
44487;DHT22;30191;50.908;6.962;2022-11-14T03:10:12;8.30;99.90
44487;DHT22;30191;50.908;6.962;2022-11-14T03:12:38;8.30;99.90
44487;DHT22;30191;50.908;6.962;2022-11-14T03:15:06;8.30;99.90
44487;DHT22;30191;50.908;6.962;2022-11-14T03:17:33;8.30;99.90
44487;DHT22;30191;50.908;6.962;2022-11-14T03:19:59;8.20;99.90
44487;DHT22;30191;50.908;6.962;2022-11-14T03:22:25;8.20;99.90
44487;DHT22;30191;50.908;6.962;2022-11-14T03:24:51;8.20;99.90
44487;DHT22;30191;50.908;6.962;2022-11-14T03:27:17;8.20;99.90
44487;DHT22;30191;50.908;6.962;2022-11-14T03:29:43;8.20;99.90
44487;DHT22;30191;50.908;6.962;2022-11-14T03:32:09;8.20;99.90
44487;DHT22;30191;50.908;6.962;2022-11-14T03:34:34;8.20;99.90
44487;DHT22;30191;50.908;6.962;2022-11-14T03:37:01;8.20;99.90
44487;DHT22;30191;50.908;6.962;2022-11-14T03:39:27;8.10;99.90
44487;DHT22;30191;50.908;6.962;2022-11-14T03:41:52;8.20;99.90
44487;DHT22;30191;50.908;6.962;2022-11-14T03:44:18;8.10;99.90
44487;DHT22;30191;50.908;6.962;2022-11-14T03:46:44;8.20;99.90
44487;DHT22;30191;50.908;6.962;2022-11-14T03:49:09;8.20;99.90
44487;DHT22;30191;50.908;6.962;2022-11-14T03:51:36;8.20;99.90
44487;DHT22;30191;50.908;6.962;2022-11-14T03:54:02;8.10;99.90
44487;DHT22;30191;50.908;6.962;2022-11-14T03:56:27;8.10;99.90
44487;DHT22;30191;50.908;6.962;2022-11-14T03:58:53;8.00;99.90
44487;DHT22;30191;50.908;6.962;2022-11-14T04:01:19;8.10;99.90
44487;DHT22;30191;50.908;6.962;2022-11-14T04:03:44;8.10;99.90
44487;DHT22;30191;50.908;6.962;2022-11-14T04:06:10;8.00;99.90
44487;DHT22;30191;50.908;6.962;2022-11-14T04:08:38;8.00;99.90
44487;DHT22;30191;50.908;6.962;2022-11-14T04:11:04;8.00;99.90
44487;DHT22;30191;50.908;6.962;2022-11-14T04:13:29;8.00;99.90
44487;DHT22;30191;50.908;6.962;2022-11-14T04:15:56;8.00;99.90
44487;DHT22;30191;50.908;6.962;2022-11-14T04:18:23;7.90;99.90
44487;DHT22;30191;50.908;6.962;2022-11-14T04:20:49;7.90;99.90
44487;DHT22;30191;50.908;6.962;2022-11-14T04:23:14;8.00;99.90
44487;DHT22;30191;50.908;6.962;2022-11-14T04:25:45;8.00;99.90
44487;DHT22;30191;50.908;6.962;2022-11-14T04:28:11;7.90;99.90
44487;DHT22;30191;50.908;6.962;2022-11-14T04:30:37;7.90;99.90
44487;DHT22;30191;50.908;6.962;2022-11-14T04:33:03;7.90;99.90
44487;DHT22;30191;50.908;6.962;2022-11-14T04:35:28;7.80;99.90
44487;DHT22;30191;50.908;6.962;2022-11-14T04:37:54;7.70;99.90
44487;DHT22;30191;50.908;6.962;2022-11-14T04:40:20;7.70;99.90
44487;DHT22;30191;50.908;6.962;2022-11-14T04:42:45;7.80;99.90
44487;DHT22;30191;50.908;6.962;2022-11-14T04:45:11;7.70;99.90
44487;DHT22;30191;50.908;6.962;2022-11-14T04:47:37;7.60;99.90
44487;DHT22;30191;50.908;6.962;2022-11-14T04:50:03;7.60;99.90
44487;DHT22;30191;50.908;6.962;2022-11-14T04:52:28;7.60;99.90
44487;DHT22;30191;50.908;6.962;2022-11-14T04:54:54;7.60;99.90
44487;DHT22;30191;50.908;6.962;2022-11-14T04:57:20;7.50;99.90
44487;DHT22;30191;50.908;6.962;2022-11-14T04:59:45;7.50;99.90
44487;DHT22;30191;50.908;6.962;2022-11-14T05:02:11;7.50;99.90
44487;DHT22;30191;50.908;6.962;2022-11-14T05:04:37;7.50;99.90
44487;DHT22;30191;50.908;6.962;2022-11-14T05:07:02;7.40;99.90
44487;DHT22;30191;50.908;6.962;2022-11-14T05:09:28;7.40;99.90
44487;DHT22;30191;50.908;6.962;2022-11-14T05:11:54;7.50;99.90
44487;DHT22;30191;50.908;6.962;2022-11-14T05:14:19;7.50;99.90
44487;DHT22;30191;50.908;6.962;2022-11-14T05:16:45;7.60;99.90
44487;DHT22;30191;50.908;6.962;2022-11-14T05:19:11;7.60;99.90
44487;DHT22;30191;50.908;6.962;2022-11-14T05:21:36;7.60;99.90
44487;DHT22;30191;50.908;6.962;2022-11-14T05:24:02;7.70;99.90
44487;DHT22;30191;50.908;6.962;2022-11-14T05:26:28;7.70;99.90
44487;DHT22;30191;50.908;6.962;2022-11-14T05:28:54;7.70;99.90
44487;DHT22;30191;50.908;6.962;2022-11-14T05:31:19;7.80;99.90
44487;DHT22;30191;50.908;6.962;2022-11-14T05:33:45;7.80;99.90
44487;DHT22;30191;50.908;6.962;2022-11-14T05:36:15;7.80;99.90
44487;DHT22;30191;50.908;6.962;2022-11-14T05:38:42;7.70;99.90
44487;DHT22;30191;50.908;6.962;2022-11-14T05:41:10;7.80;99.90
44487;DHT22;30191;50.908;6.962;2022-11-14T05:43:36;7.70;99.90
44487;DHT22;30191;50.908;6.962;2022-11-14T05:46:03;7.80;99.90
44487;DHT22;30191;50.908;6.962;2022-11-14T05:48:29;7.80;99.90
44487;DHT22;30191;50.908;6.962;2022-11-14T05:50:59;7.80;99.90
44487;DHT22;30191;50.908;6.962;2022-11-14T05:53:26;7.70;99.90
44487;DHT22;30191;50.908;6.962;2022-11-14T05:55:52;7.80;99.90
44487;DHT22;30191;50.908;6.962;2022-11-14T05:58:19;7.80;99.90
44487;DHT22;30191;50.908;6.962;2022-11-14T06:00:44;7.90;99.90
44487;DHT22;30191;50.908;6.962;2022-11-14T06:03:10;7.80;99.90
44487;DHT22;30191;50.908;6.962;2022-11-14T06:05:36;7.90;99.90
44487;DHT22;30191;50.908;6.962;2022-11-14T06:08:02;7.90;99.90
44487;DHT22;30191;50.908;6.962;2022-11-14T06:10:29;7.90;99.90
44487;DHT22;30191;50.908;6.962;2022-11-14T06:12:54;7.90;99.90
44487;DHT22;30191;50.908;6.962;2022-11-14T06:15:20;7.80;99.90
44487;DHT22;30191;50.908;6.962;2022-11-14T06:17:46;7.90;99.90
44487;DHT22;30191;50.908;6.962;2022-11-14T06:20:12;7.90;99.90
44487;DHT22;30191;50.908;6.962;2022-11-14T06:22:39;7.90;99.90
44487;DHT22;30191;50.908;6.962;2022-11-14T06:25:05;7.90;99.90
44487;DHT22;30191;50.908;6.962;2022-11-14T06:27:31;7.80;99.90
44487;DHT22;30191;50.908;6.962;2022-11-14T06:29:56;7.80;99.90
44487;DHT22;30191;50.908;6.962;2022-11-14T06:32:22;7.80;99.90
44487;DHT22;30191;50.908;6.962;2022-11-14T06:34:48;7.80;99.90
44487;DHT22;30191;50.908;6.962;2022-11-14T06:37:13;7.80;99.90
44487;DHT22;30191;50.908;6.962;2022-11-14T06:39:39;7.80;99.90
44487;DHT22;30191;50.908;6.962;2022-11-14T06:42:05;7.80;99.90
44487;DHT22;30191;50.908;6.962;2022-11-14T06:44:30;7.80;99.90
44487;DHT22;30191;50.908;6.962;2022-11-14T06:46:56;7.80;99.90
44487;DHT22;30191;50.908;6.962;2022-11-14T06:49:22;7.80;99.90
44487;DHT22;30191;50.908;6.962;2022-11-14T06:51:50;7.80;99.90
44487;DHT22;30191;50.908;6.962;2022-11-14T06:54:15;7.80;99.90
44487;DHT22;30191;50.908;6.962;2022-11-14T06:56:41;7.80;99.90
44487;DHT22;30191;50.908;6.962;2022-11-14T06:59:07;7.80;99.90
44487;DHT22;30191;50.908;6.962;2022-11-14T07:01:32;7.90;99.90
44487;DHT22;30191;50.908;6.962;2022-11-14T07:03:58;7.90;99.90
44487;DHT22;30191;50.908;6.962;2022-11-14T07:06:26;7.90;99.90
44487;DHT22;30191;50.908;6.962;2022-11-14T07:08:53;8.00;99.90
44487;DHT22;30191;50.908;6.962;2022-11-14T07:11:25;8.00;99.90
44487;DHT22;30191;50.908;6.962;2022-11-14T07:13:55;8.00;99.90
44487;DHT22;30191;50.908;6.962;2022-11-14T07:16:30;8.00;99.90
44487;DHT22;30191;50.908;6.962;2022-11-14T07:19:00;8.00;99.90
44487;DHT22;30191;50.908;6.962;2022-11-14T07:21:27;8.10;99.90
44487;DHT22;30191;50.908;6.962;2022-11-14T07:23:54;8.20;99.90
44487;DHT22;30191;50.908;6.962;2022-11-14T07:26:20;8.20;99.90
44487;DHT22;30191;50.908;6.962;2022-11-14T07:28:46;8.20;99.90
44487;DHT22;30191;50.908;6.962;2022-11-14T07:31:15;8.30;99.90
44487;DHT22;30191;50.908;6.962;2022-11-14T07:33:43;8.30;99.90
44487;DHT22;30191;50.908;6.962;2022-11-14T07:36:10;8.40;99.90
44487;DHT22;30191;50.908;6.962;2022-11-14T07:38:36;8.40;99.90
44487;DHT22;30191;50.908;6.962;2022-11-14T07:41:10;8.40;99.90
44487;DHT22;30191;50.908;6.962;2022-11-14T07:43:37;8.50;99.90
44487;DHT22;30191;50.908;6.962;2022-11-14T07:46:16;8.50;99.90
44487;DHT22;30191;50.908;6.962;2022-11-14T07:48:43;8.50;99.90
44487;DHT22;30191;50.908;6.962;2022-11-14T07:51:17;8.60;99.90
44487;DHT22;30191;50.908;6.962;2022-11-14T07:53:43;8.60;99.90
44487;DHT22;30191;50.908;6.962;2022-11-14T07:56:10;8.60;99.90
44487;DHT22;30191;50.908;6.962;2022-11-14T07:58:41;8.70;99.90
44487;DHT22;30191;50.908;6.962;2022-11-14T08:01:09;8.70;99.90
44487;DHT22;30191;50.908;6.962;2022-11-14T08:03:34;8.70;99.90
44487;DHT22;30191;50.908;6.962;2022-11-14T08:06:12;8.70;99.90
44487;DHT22;30191;50.908;6.962;2022-11-14T08:08:38;8.80;99.90
44487;DHT22;30191;50.908;6.962;2022-11-14T08:11:04;8.80;99.90
44487;DHT22;30191;50.908;6.962;2022-11-14T08:13:30;8.70;99.90
44487;DHT22;30191;50.908;6.962;2022-11-14T08:15:57;8.80;99.90
44487;DHT22;30191;50.908;6.962;2022-11-14T08:18:24;8.80;99.90
44487;DHT22;30191;50.908;6.962;2022-11-14T08:20:50;8.90;99.90
44487;DHT22;30191;50.908;6.962;2022-11-14T08:23:15;8.90;99.90
44487;DHT22;30191;50.908;6.962;2022-11-14T08:25:41;8.90;99.90
44487;DHT22;30191;50.908;6.962;2022-11-14T08:28:07;8.90;99.90
44487;DHT22;30191;50.908;6.962;2022-11-14T08:30:33;8.80;99.90
44487;DHT22;30191;50.908;6.962;2022-11-14T08:33:03;8.90;99.90
44487;DHT22;30191;50.908;6.962;2022-11-14T08:35:30;8.90;99.90
44487;DHT22;30191;50.908;6.962;2022-11-14T08:37:56;8.90;99.90
44487;DHT22;30191;50.908;6.962;2022-11-14T08:40:22;9.00;99.90
44487;DHT22;30191;50.908;6.962;2022-11-14T08:42:48;9.00;99.90
44487;DHT22;30191;50.908;6.962;2022-11-14T08:45:13;9.00;99.90
44487;DHT22;30191;50.908;6.962;2022-11-14T08:47:39;8.90;99.90
44487;DHT22;30191;50.908;6.962;2022-11-14T08:50:05;8.90;99.90
44487;DHT22;30191;50.908;6.962;2022-11-14T08:52:30;9.00;99.90
44487;DHT22;30191;50.908;6.962;2022-11-14T08:54:56;8.90;99.90
44487;DHT22;30191;50.908;6.962;2022-11-14T08:57:21;9.00;99.90
44487;DHT22;30191;50.908;6.962;2022-11-14T08:59:47;9.00;99.90
44487;DHT22;30191;50.908;6.962;2022-11-14T09:02:13;9.00;99.90
44487;DHT22;30191;50.908;6.962;2022-11-14T09:04:39;9.20;99.90
44487;DHT22;30191;50.908;6.962;2022-11-14T09:07:05;9.20;99.90
44487;DHT22;30191;50.908;6.962;2022-11-14T09:09:31;9.20;99.90
44487;DHT22;30191;50.908;6.962;2022-11-14T09:11:57;9.20;99.90
44487;DHT22;30191;50.908;6.962;2022-11-14T09:14:23;9.10;99.90
44487;DHT22;30191;50.908;6.962;2022-11-14T09:16:49;9.10;99.90
44487;DHT22;30191;50.908;6.962;2022-11-14T09:19:14;9.10;99.90
44487;DHT22;30191;50.908;6.962;2022-11-14T09:21:40;9.20;99.90
44487;DHT22;30191;50.908;6.962;2022-11-14T09:24:06;9.20;99.90
44487;DHT22;30191;50.908;6.962;2022-11-14T09:26:31;9.20;99.90
44487;DHT22;30191;50.908;6.962;2022-11-14T09:28:57;9.20;99.90
44487;DHT22;30191;50.908;6.962;2022-11-14T09:31:23;9.30;99.90
44487;DHT22;30191;50.908;6.962;2022-11-14T09:33:48;9.30;99.90
44487;DHT22;30191;50.908;6.962;2022-11-14T09:36:14;9.30;99.90
44487;DHT22;30191;50.908;6.962;2022-11-14T09:38:42;9.30;99.90
44487;DHT22;30191;50.908;6.962;2022-11-14T09:46:52;9.40;99.90
44487;DHT22;30191;50.908;6.962;2022-11-14T09:49:33;9.50;99.90
44487;DHT22;30191;50.908;6.962;2022-11-14T09:52:13;9.50;99.90
44487;DHT22;30191;50.908;6.962;2022-11-14T09:54:49;9.60;99.90
44487;DHT22;30191;50.908;6.962;2022-11-14T09:57:18;9.60;99.90
44487;DHT22;30191;50.908;6.962;2022-11-14T09:59:45;9.60;99.90
44487;DHT22;30191;50.908;6.962;2022-11-14T10:05:03;9.70;99.90
44487;DHT22;30191;50.908;6.962;2022-11-14T10:24:24;10.00;99.90
44487;DHT22;30191;50.908;6.962;2022-11-14T10:32:35;10.10;99.90
44487;DHT22;30191;50.908;6.962;2022-11-14T10:35:18;10.10;99.90
44487;DHT22;30191;50.908;6.962;2022-11-14T10:38:11;10.10;99.90
44487;DHT22;30191;50.908;6.962;2022-11-14T10:40:50;10.10;99.90
44487;DHT22;30191;50.908;6.962;2022-11-14T10:45:51;10.10;99.90
44487;DHT22;30191;50.908;6.962;2022-11-14T10:51:07;10.20;99.90
44487;DHT22;30191;50.908;6.962;2022-11-14T10:53:58;10.30;99.90
44487;DHT22;30191;50.908;6.962;2022-11-14T10:56:25;10.30;99.90
44487;DHT22;30191;50.908;6.962;2022-11-14T10:58:51;10.40;99.90
44487;DHT22;30191;50.908;6.962;2022-11-14T11:04:27;10.40;99.90
44487;DHT22;30191;50.908;6.962;2022-11-14T11:07:36;10.40;99.90
44487;DHT22;30191;50.908;6.962;2022-11-14T11:10:03;10.50;99.90
44487;DHT22;30191;50.908;6.962;2022-11-14T11:12:50;10.70;99.90
44487;DHT22;30191;50.908;6.962;2022-11-14T11:15:27;10.70;99.90
44487;DHT22;30191;50.908;6.962;2022-11-14T11:18:04;10.80;99.90
44487;DHT22;30191;50.908;6.962;2022-11-14T11:25:38;10.90;99.90
44487;DHT22;30191;50.908;6.962;2022-11-14T11:30:35;10.80;99.90
44487;DHT22;30191;50.908;6.962;2022-11-14T11:35:47;10.70;99.90
44487;DHT22;30191;50.908;6.962;2022-11-14T11:38:14;10.70;99.90
44487;DHT22;30191;50.908;6.962;2022-11-14T11:40:43;10.70;99.90
44487;DHT22;30191;50.908;6.962;2022-11-14T11:45:53;10.70;99.90
44487;DHT22;30191;50.908;6.962;2022-11-14T11:48:21;10.80;99.90
44487;DHT22;30191;50.908;6.962;2022-11-14T11:50:48;10.70;99.90
44487;DHT22;30191;50.908;6.962;2022-11-14T11:55:45;10.80;99.90
44487;DHT22;30191;50.908;6.962;2022-11-14T11:58:22;10.80;99.90
44487;DHT22;30191;50.908;6.962;2022-11-14T12:00:53;10.90;99.90
44487;DHT22;30191;50.908;6.962;2022-11-14T12:03:23;11.10;99.90
44487;DHT22;30191;50.908;6.962;2022-11-14T12:09:13;11.30;99.90
44487;DHT22;30191;50.908;6.962;2022-11-14T12:12:05;11.30;99.90
44487;DHT22;30191;50.908;6.962;2022-11-14T12:14:45;11.20;99.90
44487;DHT22;30191;50.908;6.962;2022-11-14T12:23:31;11.10;99.90
44487;DHT22;30191;50.908;6.962;2022-11-14T12:29:20;11.10;99.90
44487;DHT22;30191;50.908;6.962;2022-11-14T12:32:05;11.30;99.90
44487;DHT22;30191;50.908;6.962;2022-11-14T12:34:38;11.50;99.90
44487;DHT22;30191;50.908;6.962;2022-11-14T12:37:23;11.40;99.90
44487;DHT22;30191;50.908;6.962;2022-11-14T12:40:00;11.30;99.90
44487;DHT22;30191;50.908;6.962;2022-11-14T12:42:26;11.20;99.90
44487;DHT22;30191;50.908;6.962;2022-11-14T12:44:52;11.10;99.90
44487;DHT22;30191;50.908;6.962;2022-11-14T12:47:26;11.00;99.90
44487;DHT22;30191;50.908;6.962;2022-11-14T12:55:51;10.80;99.90
44487;DHT22;30191;50.908;6.962;2022-11-14T12:58:26;10.70;99.90
44487;DHT22;30191;50.908;6.962;2022-11-14T13:06:23;10.70;99.90
44487;DHT22;30191;50.908;6.962;2022-11-14T13:09:14;10.70;99.90
44487;DHT22;30191;50.908;6.962;2022-11-14T13:11:44;10.70;99.90
44487;DHT22;30191;50.908;6.962;2022-11-14T13:14:30;10.70;99.90
44487;DHT22;30191;50.908;6.962;2022-11-14T13:20:21;10.60;99.90
44487;DHT22;30191;50.908;6.962;2022-11-14T13:23:03;10.60;99.90
44487;DHT22;30191;50.908;6.962;2022-11-14T13:25:29;10.60;99.90
44487;DHT22;30191;50.908;6.962;2022-11-14T13:27:55;10.60;99.90
44487;DHT22;30191;50.908;6.962;2022-11-14T13:33:40;10.60;99.90
44487;DHT22;30191;50.908;6.962;2022-11-14T13:36:23;10.50;99.90
44487;DHT22;30191;50.908;6.962;2022-11-14T13:47:35;10.50;99.90
44487;DHT22;30191;50.908;6.962;2022-11-14T13:50:09;10.50;99.90
44487;DHT22;30191;50.908;6.962;2022-11-14T13:52:41;10.60;99.90
44487;DHT22;30191;50.908;6.962;2022-11-14T13:55:20;10.50;99.90
44487;DHT22;30191;50.908;6.962;2022-11-14T14:01:11;10.50;99.90
44487;DHT22;30191;50.908;6.962;2022-11-14T14:06:36;10.50;99.90
44487;DHT22;30191;50.908;6.962;2022-11-14T14:09:36;10.50;99.90
44487;DHT22;30191;50.908;6.962;2022-11-14T14:15:21;10.50;99.90
44487;DHT22;30191;50.908;6.962;2022-11-14T14:23:53;10.50;99.90
44487;DHT22;30191;50.908;6.962;2022-11-14T14:31:52;10.50;99.90
44487;DHT22;30191;50.908;6.962;2022-11-14T14:34:21;10.40;99.90
44487;DHT22;30191;50.908;6.962;2022-11-14T14:36:54;10.40;99.90
44487;DHT22;30191;50.908;6.962;2022-11-14T14:39:25;10.50;99.90
44487;DHT22;30191;50.908;6.962;2022-11-14T14:41:54;10.50;99.90
44487;DHT22;30191;50.908;6.962;2022-11-14T14:44:30;10.50;99.90
44487;DHT22;30191;50.908;6.962;2022-11-14T14:46:57;10.50;99.90
44487;DHT22;30191;50.908;6.962;2022-11-14T14:49:29;10.50;99.90
44487;DHT22;30191;50.908;6.962;2022-11-14T14:51:56;10.50;99.90
44487;DHT22;30191;50.908;6.962;2022-11-14T14:54:24;10.50;99.90
44487;DHT22;30191;50.908;6.962;2022-11-14T14:56:56;10.50;99.90
44487;DHT22;30191;50.908;6.962;2022-11-14T14:59:26;10.50;99.90
44487;DHT22;30191;50.908;6.962;2022-11-14T15:01:52;10.50;99.90
44487;DHT22;30191;50.908;6.962;2022-11-14T15:04:21;10.50;99.90
44487;DHT22;30191;50.908;6.962;2022-11-14T15:06:48;10.50;99.90
44487;DHT22;30191;50.908;6.962;2022-11-14T15:09:25;10.40;99.90
44487;DHT22;30191;50.908;6.962;2022-11-14T15:11:53;10.40;99.90
44487;DHT22;30191;50.908;6.962;2022-11-14T15:14:40;10.40;99.90
44487;DHT22;30191;50.908;6.962;2022-11-14T15:17:06;10.40;99.90
44487;DHT22;30191;50.908;6.962;2022-11-14T15:19:39;10.50;99.90
44487;DHT22;30191;50.908;6.962;2022-11-14T15:24:35;10.40;99.90
44487;DHT22;30191;50.908;6.962;2022-11-14T15:27:09;10.40;99.90
44487;DHT22;30191;50.908;6.962;2022-11-14T15:29:45;10.40;99.90
44487;DHT22;30191;50.908;6.962;2022-11-14T15:32:19;10.40;99.90
44487;DHT22;30191;50.908;6.962;2022-11-14T15:35:09;10.40;99.90
44487;DHT22;30191;50.908;6.962;2022-11-14T15:38:24;10.40;99.90
44487;DHT22;30191;50.908;6.962;2022-11-14T15:41:18;10.40;99.90
44487;DHT22;30191;50.908;6.962;2022-11-14T15:43:46;10.30;99.90
44487;DHT22;30191;50.908;6.962;2022-11-14T15:46:34;10.40;99.90
44487;DHT22;30191;50.908;6.962;2022-11-14T15:49:19;10.40;99.90
44487;DHT22;30191;50.908;6.962;2022-11-14T15:51:52;10.40;99.90
44487;DHT22;30191;50.908;6.962;2022-11-14T15:54:32;10.40;99.90
44487;DHT22;30191;50.908;6.962;2022-11-14T15:57:11;10.40;99.90
44487;DHT22;30191;50.908;6.962;2022-11-14T15:59:38;10.30;99.90
44487;DHT22;30191;50.908;6.962;2022-11-14T16:02:28;10.30;99.90
44487;DHT22;30191;50.908;6.962;2022-11-14T16:04:56;10.40;99.90
44487;DHT22;30191;50.908;6.962;2022-11-14T16:07:22;10.40;99.90
44487;DHT22;30191;50.908;6.962;2022-11-14T16:09:48;10.30;99.90
44487;DHT22;30191;50.908;6.962;2022-11-14T16:12:14;10.40;99.90
44487;DHT22;30191;50.908;6.962;2022-11-14T16:14:40;10.30;99.90
44487;DHT22;30191;50.908;6.962;2022-11-14T16:17:14;10.40;99.90
44487;DHT22;30191;50.908;6.962;2022-11-14T16:19:40;10.40;99.90
44487;DHT22;30191;50.908;6.962;2022-11-14T16:22:10;10.40;99.90
44487;DHT22;30191;50.908;6.962;2022-11-14T16:24:36;10.40;99.90
44487;DHT22;30191;50.908;6.962;2022-11-14T16:27:02;10.40;99.90
44487;DHT22;30191;50.908;6.962;2022-11-14T16:29:27;10.40;99.90
44487;DHT22;30191;50.908;6.962;2022-11-14T16:31:53;10.40;99.90
44487;DHT22;30191;50.908;6.962;2022-11-14T16:34:25;10.40;99.90
44487;DHT22;30191;50.908;6.962;2022-11-14T16:36:59;10.50;99.90
44487;DHT22;30191;50.908;6.962;2022-11-14T16:39:25;10.40;99.90
44487;DHT22;30191;50.908;6.962;2022-11-14T16:41:51;10.50;99.90
44487;DHT22;30191;50.908;6.962;2022-11-14T16:44:17;10.50;99.90
44487;DHT22;30191;50.908;6.962;2022-11-14T16:46:44;10.50;99.90
44487;DHT22;30191;50.908;6.962;2022-11-14T16:49:16;10.50;99.90
44487;DHT22;30191;50.908;6.962;2022-11-14T16:51:42;10.50;99.90
44487;DHT22;30191;50.908;6.962;2022-11-14T16:54:11;10.50;99.90
44487;DHT22;30191;50.908;6.962;2022-11-14T16:56:37;10.50;99.90
44487;DHT22;30191;50.908;6.962;2022-11-14T16:59:03;10.50;99.90
44487;DHT22;30191;50.908;6.962;2022-11-14T17:01:28;10.50;99.90
44487;DHT22;30191;50.908;6.962;2022-11-14T17:03:56;10.50;99.90
44487;DHT22;30191;50.908;6.962;2022-11-14T17:06:24;10.50;99.90
44487;DHT22;30191;50.908;6.962;2022-11-14T17:08:53;10.50;99.90
44487;DHT22;30191;50.908;6.962;2022-11-14T17:11:19;10.50;99.90
44487;DHT22;30191;50.908;6.962;2022-11-14T17:13:45;10.50;99.90
44487;DHT22;30191;50.908;6.962;2022-11-14T17:16:11;10.50;99.90
44487;DHT22;30191;50.908;6.962;2022-11-14T17:18:37;10.50;99.90
44487;DHT22;30191;50.908;6.962;2022-11-14T17:21:07;10.50;99.90
44487;DHT22;30191;50.908;6.962;2022-11-14T17:23:33;10.50;99.90
44487;DHT22;30191;50.908;6.962;2022-11-14T17:26:08;10.50;99.90
44487;DHT22;30191;50.908;6.962;2022-11-14T17:28:34;10.50;99.90
44487;DHT22;30191;50.908;6.962;2022-11-14T17:31:08;10.60;99.90
44487;DHT22;30191;50.908;6.962;2022-11-14T17:33:35;10.60;99.90
44487;DHT22;30191;50.908;6.962;2022-11-14T17:36:05;10.60;99.90
44487;DHT22;30191;50.908;6.962;2022-11-14T17:38:33;10.60;99.90
44487;DHT22;30191;50.908;6.962;2022-11-14T17:40:59;10.60;99.90
44487;DHT22;30191;50.908;6.962;2022-11-14T17:43:25;10.60;99.90
44487;DHT22;30191;50.908;6.962;2022-11-14T17:45:57;10.70;99.90
44487;DHT22;30191;50.908;6.962;2022-11-14T17:48:24;10.60;99.90
44487;DHT22;30191;50.908;6.962;2022-11-14T17:50:50;10.60;99.90